Time,TemperatureF,DewpointF,PressureIn,WindDirection,WindDirectionDegrees,WindSpeedMPH,WindSpeedGustMPH,Humidity,HourlyPrecipIn,Conditions,Clouds,dailyrainin,SoftwareType,DateUTC
2013-03-11 00:02:00,21.0,4.0,-100.00,NE,35,14.0,21.0,47,0.00,,,-99.99,,2013-03-11 06:02:00,
2013-03-11 00:12:00,21.0,4.0,-100.00,NE,35,14.0,21.0,47,0.00,,,-99.99,,2013-03-11 06:12:00,
2013-03-11 00:22:00,21.0,4.0,-100.00,NE,40,17.0,23.0,46,0.00,,,-99.99,,2013-03-11 06:22:00,
2013-03-11 00:32:00,20.0,3.0,-100.00,NE,35,16.0,20.0,47,0.00,,,-99.99,,2013-03-11 06:32:00,
2013-03-11 00:42:00,21.0,3.0,-100.00,NE,35,14.0,22.0,45,0.00,,,-99.99,,2013-03-11 06:42:00,
2013-03-11 00:52:00,21.0,3.0,-100.00,NE,45,17.0,23.0,45,0.00,,,-99.99,,2013-03-11 06:52:00,
2013-03-11 01:02:00,21.0,3.0,-100.00,NE,35,14.0,21.0,45,0.00,,,-99.99,,2013-03-11 07:02:00,
2013-03-11 01:12:00,21.0,3.0,-100.00,NE,45,12.0,22.0,45,0.00,,,-99.99,,2013-03-11 07:12:00,
2013-03-11 01:22:00,21.0,3.0,-100.00,NE,50,11.0,19.0,45,0.00,,,-99.99,,2013-03-11 07:22:00,
2013-03-11 01:32:00,21.0,3.0,-100.00,ENE,60,11.0,16.0,45,0.00,,,-99.99,,2013-03-11 07:32:00,
2013-03-11 01:42:00,21.0,3.0,-100.00,NE,55,11.0,17.0,45,0.00,,,-99.99,,2013-03-11 07:42:00,
2013-03-11 01:52:00,21.0,3.0,-100.00,NE,45,11.0,20.0,45,0.00,,,-99.99,,2013-03-11 07:52:00,
2013-03-11 02:02:00,21.0,3.0,-100.00,East,90,11.0,19.0,45,0.00,,,-99.99,,2013-03-11 08:02:00,
2013-03-11 02:12:00,21.0,3.0,-100.00,East,100,11.0,15.0,45,0.00,,,-99.99,,2013-03-11 08:12:00,
2013-03-11 02:22:00,21.0,3.0,-100.00,ESE,115,10.0,17.0,44,0.00,,,-99.99,,2013-03-11 08:22:00,
2013-03-11 02:32:00,20.0,2.0,-100.00,ESE,115,9.0,16.0,45,0.00,,,-99.99,,2013-03-11 08:32:00,
2013-03-11 02:42:00,19.0,2.0,-100.00,ESE,110,12.0,17.0,47,0.00,,,-99.99,,2013-03-11 08:42:00,
2013-03-11 02:52:00,19.0,2.0,-100.00,ENE,65,12.0,16.0,47,0.00,,,-99.99,,2013-03-11 08:52:00,
2013-03-11 03:02:00,20.0,3.0,-100.00,ENE,75,16.0,18.0,45,0.00,,,-99.99,,2013-03-11 09:02:00,
2013-03-11 03:12:00,20.0,2.0,-100.00,ENE,70,6.0,19.0,45,0.00,,,-99.99,,2013-03-11 09:12:00,
2013-03-11 03:23:00,20.0,2.0,-100.00,SE,125,7.0,16.0,45,0.00,,,-99.99,,2013-03-11 09:23:00,
2013-03-11 03:32:00,24.0,2.0,-100.00,NNE,15,9.0,30.0,38,0.00,,,-99.99,,2013-03-11 09:32:00,
2013-03-11 03:42:00,26.0,3.0,-100.00,WNW,300,20.0,30.0,36,0.00,,,-99.99,,2013-03-11 09:42:00,
2013-03-11 03:52:00,27.0,3.0,-100.00,NW,320,25.0,34.0,35,0.00,,,-99.99,,2013-03-11 09:52:00,
2013-03-11 04:02:00,26.0,2.0,-100.00,NW,325,32.0,46.0,35,0.00,,,-99.99,,2013-03-11 10:02:00,
2013-03-11 04:12:00,25.0,2.0,-100.00,NW,320,29.0,42.0,35,0.00,,,-99.99,,2013-03-11 10:12:00,
2013-03-11 04:22:00,26.0,4.0,-100.00,NW,315,37.0,47.0,39,0.00,,,-99.99,,2013-03-11 10:22:00,
2013-03-11 04:32:00,24.0,6.0,-100.00,NW,305,37.0,51.0,45,0.00,,,-99.99,,2013-03-11 10:32:00,
2013-03-11 04:42:00,25.0,6.0,-100.00,NW,305,43.0,55.0,43,0.00,,,-99.99,,2013-03-11 10:42:00,
2013-03-11 04:52:00,24.0,6.0,-100.00,NW,305,44.0,56.0,44,0.00,,,-99.99,,2013-03-11 10:52:00,
2013-03-11 05:02:00,25.0,4.0,-100.00,NW,310,39.0,56.0,41,0.00,,,-99.99,,2013-03-11 11:02:00,
2013-03-11 05:12:00,24.0,4.0,-100.00,NW,310,42.0,54.0,41,0.00,,,-99.99,,2013-03-11 11:12:00,
2013-03-11 05:22:00,25.0,3.0,-100.00,NW,310,39.0,68.0,38,0.00,,,-99.99,,2013-03-11 11:22:00,
2013-03-11 05:32:00,24.0,3.0,-100.00,NW,305,41.0,56.0,39,0.00,,,-99.99,,2013-03-11 11:32:00,
2013-03-11 05:42:00,24.0,4.0,-100.00,NW,310,40.0,109.0,40,0.00,,,-99.99,,2013-03-11 11:42:00,
2013-03-11 05:52:00,24.0,3.0,-100.00,NW,315,44.0,56.0,41,0.00,,,-99.99,,2013-03-11 11:52:00,
2013-03-11 06:02:00,23.0,4.0,-100.00,NW,305,48.0,61.0,43,0.00,,,-99.99,,2013-03-11 12:02:00,
2013-03-11 06:12:00,24.0,3.0,-100.00,NW,315,40.0,60.0,39,0.00,,,-99.99,,2013-03-11 12:12:00,
2013-03-11 06:22:00,24.0,3.0,-100.00,NW,310,43.0,52.0,39,0.00,,,-99.99,,2013-03-11 12:22:00,
2013-03-11 06:32:00,24.0,3.0,-100.00,WNW,300,48.0,66.0,39,0.00,,,-99.99,,2013-03-11 12:32:00,
2013-03-11 06:43:00,24.0,2.0,-100.00,NW,305,47.0,60.0,37,0.00,,,-99.99,,2013-03-11 12:43:00,
2013-03-11 06:52:00,24.0,1.0,-100.00,NW,310,43.0,59.0,36,0.00,,,-99.99,,2013-03-11 12:52:00,
2013-03-11 07:02:00,24.0,0.0,-100.00,NW,310,43.0,57.0,33,0.00,,,-99.99,,2013-03-11 13:02:00,
2013-03-11 07:12:00,25.0,-1.0,-100.00,NW,310,42.0,56.0,31,0.00,,,-99.99,,2013-03-11 13:12:00,
2013-03-11 07:22:00,25.0,-2.0,-100.00,NW,305,42.0,55.0,29,0.00,,,-99.99,,2013-03-11 13:22:00,
2013-03-11 07:32:00,25.0,-3.0,-100.00,NW,310,40.0,60.0,29,0.00,,,-99.99,,2013-03-11 13:32:00,
2013-03-11 07:42:00,25.0,-2.0,-100.00,NW,305,45.0,56.0,29,0.00,,,-99.99,,2013-03-11 13:42:00,
2013-03-11 07:52:00,25.0,-2.0,-100.00,NW,305,44.0,58.0,29,0.00,,,-99.99,,2013-03-11 13:52:00,
2013-03-11 08:02:00,26.0,-1.0,-100.00,NW,305,41.0,57.0,29,0.00,,,-99.99,,2013-03-11 14:02:00,
2013-03-11 08:12:00,26.0,0.0,-100.00,NW,305,40.0,57.0,32,0.00,,,-99.99,,2013-03-11 14:12:00,
2013-03-11 08:22:00,25.0,1.0,-100.00,WNW,300,42.0,59.0,33,0.00,,,-99.99,,2013-03-11 14:22:00,
2013-03-11 08:33:00,25.0,1.0,-100.00,WNW,295,42.0,56.0,35,0.00,,,-99.99,,2013-03-11 14:33:00,
2013-03-11 08:42:00,26.0,2.0,-100.00,WNW,300,45.0,57.0,35,0.00,,,-99.99,,2013-03-11 14:42:00,
2013-03-11 08:52:00,26.0,2.0,-100.00,WNW,300,45.0,59.0,35,0.00,,,-99.99,,2013-03-11 14:52:00,
2013-03-11 09:02:00,25.0,2.0,-100.00,WNW,300,50.0,61.0,36,0.00,,,-99.99,,2013-03-11 15:02:00,
2013-03-11 09:12:00,26.0,3.0,-100.00,WNW,300,46.0,61.0,36,0.00,,,-99.99,,2013-03-11 15:12:00,
2013-03-11 09:22:00,26.0,3.0,-100.00,WNW,295,45.0,60.0,37,0.00,,,-99.99,,2013-03-11 15:22:00,
2013-03-11 09:32:00,26.0,4.0,-100.00,WNW,295,47.0,58.0,37,0.00,,,-99.99,,2013-03-11 15:32:00,
2013-03-11 09:42:00,27.0,4.0,-100.00,WNW,295,48.0,62.0,37,0.00,,,-99.99,,2013-03-11 15:42:00,
2013-03-11 09:52:00,27.0,5.0,-100.00,WNW,300,40.0,54.0,37,0.00,,,-99.99,,2013-03-11 15:52:00,
2013-03-11 10:02:00,28.0,5.0,-100.00,WNW,300,40.0,57.0,36,0.00,,,-99.99,,2013-03-11 16:02:00,
2013-03-11 10:12:00,29.0,5.0,-100.00,WNW,300,41.0,52.0,35,0.00,,,-99.99,,2013-03-11 16:12:00,
2013-03-11 10:22:00,28.0,5.0,-100.00,WNW,300,37.0,51.0,36,0.00,,,-99.99,,2013-03-11 16:22:00,
2013-03-11 10:32:00,28.0,5.0,-100.00,WNW,300,38.0,49.0,37,0.00,,,-99.99,,2013-03-11 16:32:00,
2013-03-11 10:43:00,29.0,6.0,-100.00,WNW,300,40.0,53.0,36,0.00,,,-99.99,,2013-03-11 16:43:00,
2013-03-11 10:52:00,29.0,6.0,-100.00,WNW,300,40.0,53.0,36,0.00,,,-99.99,,2013-03-11 16:52:00,
2013-03-11 11:02:00,30.0,6.0,-100.00,WNW,300,40.0,52.0,35,0.00,,,-99.99,,2013-03-11 17:02:00,
2013-03-11 11:14:00,30.0,7.0,-100.00,WNW,295,35.0,48.0,35,0.00,,,-99.99,,2013-03-11 17:14:00,
2013-03-11 11:25:00,30.0,6.0,-100.00,WNW,300,36.0,47.0,35,0.00,,,-99.99,,2013-03-11 17:25:00,
2013-03-11 11:35:00,31.0,6.0,-100.00,NW,305,39.0,46.0,34,0.00,,,-99.99,,2013-03-11 17:35:00,
2013-03-11 11:42:00,31.0,6.0,-100.00,NW,305,37.0,48.0,34,0.00,,,-99.99,,2013-03-11 17:42:00,
2013-03-11 11:52:00,31.0,6.0,-100.00,NW,310,37.0,48.0,34,0.00,,,-99.99,,2013-03-11 17:52:00,
2013-03-11 12:02:00,31.0,6.0,-100.00,NW,305,34.0,48.0,35,0.00,,,-99.99,,2013-03-11 18:02:00,
2013-03-11 12:12:00,31.0,7.0,-100.00,NW,320,32.0,39.0,35,0.00,,,-99.99,,2013-03-11 18:12:00,
2013-03-11 12:23:00,32.0,8.0,-100.00,NW,315,27.0,38.0,35,0.00,,,-99.99,,2013-03-11 18:23:00,
2013-03-11 12:32:00,33.0,9.0,-100.00,NNW,330,22.0,37.0,35,0.00,,,-99.99,,2013-03-11 18:32:00,
2013-03-11 12:42:00,33.0,9.0,-100.00,NNW,330,24.0,34.0,35,0.00,,,-99.99,,2013-03-11 18:42:00,
2013-03-11 12:52:00,33.0,10.0,-100.00,NNW,335,28.0,34.0,37,0.00,,,-99.99,,2013-03-11 18:52:00,
2013-03-11 13:02:00,33.0,9.0,-100.00,NW,320,22.0,32.0,35,0.00,,,-99.99,,2013-03-11 19:02:00,
2013-03-11 13:12:00,34.0,11.0,-100.00,NNW,330,22.0,30.0,37,0.00,,,-99.99,,2013-03-11 19:12:00,
2013-03-11 13:22:00,34.0,11.0,-100.00,NNW,330,18.0,28.0,37,0.00,,,-99.99,,2013-03-11 19:22:00,
2013-03-11 13:32:00,35.0,10.0,-100.00,NW,325,19.0,29.0,35,0.00,,,-99.99,,2013-03-11 19:32:00,
2013-03-11 13:42:00,35.0,11.0,-100.00,NNW,340,21.0,27.0,36,0.00,,,-99.99,,2013-03-11 19:42:00,
2013-03-11 13:52:00,34.0,10.0,-100.00,NNW,335,18.0,25.0,36,0.00,,,-99.99,,2013-03-11 19:52:00,
2013-03-11 14:02:00,35.0,11.0,-100.00,NNW,330,17.0,25.0,35,0.00,,,-99.99,,2013-03-11 20:02:00,
2013-03-11 14:12:00,35.0,11.0,-100.00,NNW,335,18.0,25.0,36,0.00,,,-99.99,,2013-03-11 20:12:00,
2013-03-11 14:22:00,35.0,11.0,-100.00,NNW,330,15.0,23.0,35,0.00,,,-99.99,,2013-03-11 20:22:00,
2013-03-11 14:32:00,35.0,11.0,-100.00,NNW,330,16.0,32.0,37,0.00,,,-99.99,,2013-03-11 20:32:00,
2013-03-11 14:43:00,35.0,11.0,-100.00,NNW,330,16.0,32.0,37,0.00,,,-99.99,,2013-03-11 20:43:00,
2013-03-11 14:52:00,34.0,10.0,-100.00,NW,305,16.0,23.0,35,0.00,,,-99.99,,2013-03-11 20:52:00,
2013-03-11 15:03:00,35.0,10.0,-100.00,NW,310,14.0,21.0,35,0.00,,,-99.99,,2013-03-11 21:03:00,
2013-03-11 15:12:00,35.0,10.0,-100.00,NW,325,15.0,22.0,34,0.00,,,-99.99,,2013-03-11 21:12:00,
2013-03-11 15:22:00,35.0,11.0,-100.00,NNW,340,12.0,20.0,35,0.00,,,-99.99,,2013-03-11 21:22:00,
2013-03-11 15:32:00,34.0,11.0,-100.00,NNW,335,18.0,24.0,37,0.00,,,-99.99,,2013-03-11 21:32:00,
2013-03-11 15:43:00,34.0,12.0,-100.00,NNW,335,15.0,26.0,39,0.00,,,-99.99,,2013-03-11 21:43:00,
2013-03-11 15:52:00,33.0,11.0,-100.00,NW,315,14.0,22.0,38,0.00,,,-99.99,,2013-03-11 21:52:00,
2013-03-11 16:02:00,33.0,11.0,-100.00,NNW,335,14.0,24.0,39,0.00,,,-99.99,,2013-03-11 22:02:00,
2013-03-11 16:12:00,35.0,12.0,-100.00,NW,325,12.0,22.0,38,0.00,,,-99.99,,2013-03-11 22:12:00,
2013-03-11 16:22:00,32.0,12.0,-100.00,NNW,330,16.0,25.0,43,0.00,,,-99.99,,2013-03-11 22:22:00,
2013-03-11 16:32:00,33.0,13.0,-100.00,NNW,335,11.0,18.0,42,0.00,,,-99.99,,2013-03-11 22:32:00,
2013-03-11 16:43:00,32.0,10.0,-100.00,WNW,290,16.0,22.0,39,0.00,,,-99.99,,2013-03-11 22:43:00,
2013-03-11 16:52:00,30.0,10.0,-100.00,NW,305,16.0,26.0,41,0.00,,,-99.99,,2013-03-11 22:52:00,
2013-03-11 17:03:00,30.0,10.0,-100.00,WNW,290,13.0,25.0,43,0.00,,,-99.99,,2013-03-11 23:03:00,
2013-03-11 17:12:00,31.0,11.0,-100.00,NW,305,12.0,20.0,42,0.00,,,-99.99,,2013-03-11 23:12:00,
2013-03-11 17:22:00,31.0,10.0,-100.00,WNW,295,12.0,19.0,41,0.00,,,-99.99,,2013-03-11 23:22:00,
2013-03-11 17:32:00,31.0,10.0,-100.00,WNW,300,12.0,18.0,41,0.00,,,-99.99,,2013-03-11 23:32:00,
2013-03-11 17:43:00,30.0,10.0,-100.00,WNW,295,14.0,20.0,41,0.00,,,-99.99,,2013-03-11 23:43:00,
2013-03-11 17:52:00,31.0,10.0,-100.00,WNW,285,16.0,21.0,41,0.00,,,-99.99,,2013-03-11 23:52:00,
2013-03-11 18:02:00,29.0,9.0,-100.00,WNW,300,18.0,27.0,41,0.00,,,-99.99,,2013-03-12 00:02:00,
2013-03-11 18:12:00,29.0,9.0,-100.00,WNW,295,19.0,24.0,42,0.00,,,-99.99,,2013-03-12 00:12:00,
2013-03-11 18:22:00,29.0,9.0,-100.00,WNW,300,21.0,29.0,42,0.00,,,-99.99,,2013-03-12 00:22:00,
2013-03-11 18:33:00,29.0,8.0,-100.00,NW,315,19.0,29.0,40,0.00,,,-99.99,,2013-03-12 00:33:00,
2013-03-11 18:42:00,28.0,9.0,-100.00,NW,310,16.0,25.0,43,0.00,,,-99.99,,2013-03-12 00:42:00,
2013-03-11 18:53:00,29.0,9.0,-100.00,NW,310,13.0,24.0,43,0.00,,,-99.99,,2013-03-12 00:53:00,
2013-03-11 19:02:00,28.0,10.0,-100.00,NW,310,15.0,21.0,45,0.00,,,-99.99,,2013-03-12 01:02:00,
2013-03-11 19:12:00,28.0,10.0,-100.00,WNW,300,15.0,21.0,45,0.00,,,-99.99,,2013-03-12 01:12:00,
2013-03-11 19:22:00,28.0,10.0,-100.00,WNW,300,14.0,19.0,46,0.00,,,-99.99,,2013-03-12 01:22:00,
2013-03-11 19:32:00,28.0,9.0,-100.00,NW,305,16.0,22.0,44,0.00,,,-99.99,,2013-03-12 01:32:00,
2013-03-11 19:42:00,28.0,9.0,-100.00,NW,320,17.0,22.0,44,0.00,,,-99.99,,2013-03-12 01:42:00,
2013-03-11 19:52:00,28.0,9.0,-100.00,NW,305,21.0,26.0,43,0.00,,,-99.99,,2013-03-12 01:52:00,
2013-03-11 20:02:00,28.0,9.0,-100.00,WNW,290,18.0,25.0,45,0.00,,,-99.99,,2013-03-12 02:02:00,
2013-03-11 20:12:00,28.0,10.0,-100.00,WNW,285,20.0,27.0,45,0.00,,,-99.99,,2013-03-12 02:12:00,
2013-03-11 20:22:00,28.0,10.0,-100.00,WNW,290,17.0,32.0,45,0.00,,,-99.99,,2013-03-12 02:22:00,
2013-03-11 20:32:00,28.0,9.0,-100.00,WNW,290,21.0,32.0,43,0.00,,,-99.99,,2013-03-12 02:32:00,
2013-03-11 20:42:00,28.0,9.0,-100.00,WNW,295,19.0,26.0,43,0.00,,,-99.99,,2013-03-12 02:42:00,
2013-03-11 20:52:00,28.0,8.0,-100.00,WNW,300,19.0,30.0,43,0.00,,,-99.99,,2013-03-12 02:52:00,
2013-03-11 21:02:00,28.0,8.0,-100.00,WNW,300,19.0,32.0,43,0.00,,,-99.99,,2013-03-12 03:02:00,
2013-03-11 21:12:00,28.0,9.0,-100.00,NW,305,16.0,25.0,44,0.00,,,-99.99,,2013-03-12 03:12:00,
2013-03-11 21:22:00,27.0,9.0,-100.00,NW,310,18.0,24.0,45,0.00,,,-99.99,,2013-03-12 03:22:00,
2013-03-11 21:32:00,27.0,9.0,-100.00,NW,305,17.0,25.0,45,0.00,,,-99.99,,2013-03-12 03:32:00,
2013-03-11 21:42:00,27.0,9.0,-100.00,NW,310,19.0,28.0,47,0.00,,,-99.99,,2013-03-12 03:42:00,
2013-03-11 21:52:00,26.0,11.0,-100.00,WNW,300,17.0,21.0,50,0.00,,,-99.99,,2013-03-12 03:52:00,
2013-03-11 22:02:00,26.0,12.0,-100.00,NW,310,11.0,21.0,56,0.00,,,-99.99,,2013-03-12 04:02:00,
2013-03-11 22:13:00,26.0,11.0,-100.00,NW,310,17.0,27.0,52,0.00,,,-99.99,,2013-03-12 04:13:00,
2013-03-11 22:22:00,27.0,11.0,-100.00,NW,315,16.0,30.0,50,0.00,,,-99.99,,2013-03-12 04:22:00,
2013-03-11 22:32:00,27.0,11.0,-100.00,NW,320,18.0,25.0,50,0.00,,,-99.99,,2013-03-12 04:32:00,
2013-03-11 22:43:00,26.0,12.0,-100.00,NW,305,13.0,24.0,55,0.00,,,-99.99,,2013-03-12 04:43:00,
2013-03-11 22:52:00,26.0,12.0,-100.00,NW,305,16.0,24.0,55,0.00,,,-99.99,,2013-03-12 04:52:00,
2013-03-11 23:02:00,25.0,14.0,-100.00,NW,305,11.0,17.0,60,0.00,,,-99.99,,2013-03-12 05:02:00,
2013-03-11 23:12:00,25.0,14.0,-100.00,NW,310,12.0,19.0,62,0.00,,,-99.99,,2013-03-12 05:12:00,
2013-03-11 23:22:00,24.0,16.0,-100.00,WNW,290,16.0,22.0,69,0.10,,,-99.99,,2013-03-12 05:22:00,
2013-03-11 23:32:00,24.0,17.0,-100.00,NW,320,12.0,18.0,73,0.00,,,-99.99,,2013-03-12 05:32:00,
2013-03-11 23:42:00,24.0,17.0,-100.00,NW,315,16.0,21.0,75,0.20,,,-99.99,,2013-03-12 05:42:00,
2013-03-11 23:52:00,24.0,18.0,-100.00,NW,320,12.0,19.0,76,0.00,,,-99.99,,2013-03-12 05:52:00,